createdAt,value
2018-11-23T00:00:25.749Z,18.80
2018-11-23T00:02:55.944Z,19.83
2018-11-23T00:05:25.475Z,18.23
2018-11-23T00:07:55.883Z,18.17
2018-11-23T00:10:25.501Z,20.20
2018-11-23T00:12:54.997Z,19.37
2018-11-23T00:15:24.489Z,23.67
2018-11-23T00:17:53.046Z,20.40
2018-11-23T00:20:24.081Z,20.87
2018-11-23T00:22:52.687Z,20.50
2018-11-23T00:25:22.542Z,20.37
2018-11-23T00:27:51.493Z,20.30
2018-11-23T00:30:22.249Z,21.23
2018-11-23T00:32:51.498Z,21.97
2018-11-23T00:35:23.594Z,22.07
2018-11-23T00:37:52.909Z,21.67
2018-11-23T00:40:22.692Z,21.70
2018-11-23T00:42:52.674Z,21.90
2018-11-23T00:45:21.299Z,23.70
2018-11-23T00:47:50.582Z,23.67
2018-11-23T00:50:20.555Z,24.50
2018-11-23T00:52:49.592Z,25.97
2018-11-23T00:55:20.231Z,26.20
2018-11-23T00:57:48.817Z,28.60
2018-11-23T01:00:23.579Z,28.50
2018-11-23T01:02:52.542Z,29.13
2018-11-23T01:05:22.122Z,29.43
2018-11-23T01:07:50.757Z,27.10
2018-11-23T01:10:20.400Z,27.57
2018-11-23T01:12:50.899Z,30.80
2018-11-23T01:15:19.528Z,27.73
2018-11-23T01:17:48.607Z,29.17
2018-11-23T01:20:22.899Z,30.33
2018-11-23T01:22:51.916Z,29.03
2018-11-23T01:25:21.587Z,32.43
2018-11-23T01:27:51.328Z,32.93
2018-11-23T01:30:21.797Z,31.60
2018-11-23T01:32:51.467Z,33.30
2018-11-23T01:35:20.047Z,31.43
2018-11-23T01:37:48.699Z,30.67
2018-11-23T01:40:20.123Z,31.03
2018-11-23T01:42:48.844Z,36.40
2018-11-23T01:45:18.262Z,33.13
2018-11-23T01:47:47.393Z,34.97
2018-11-23T01:50:20.077Z,35.23
2018-11-23T01:52:50.550Z,35.17
2018-11-23T01:55:20.977Z,32.27
2018-11-23T01:57:49.592Z,34.40
2018-11-23T02:00:19.700Z,36.53
2018-11-23T02:02:48.926Z,36.23
2018-11-23T02:05:18.484Z,37.93
2018-11-23T02:07:47.464Z,36.80
2018-11-23T02:10:17.148Z,36.33
2018-11-23T02:12:46.956Z,33.67
2018-11-23T02:15:17.610Z,37.27
2018-11-23T02:17:47.162Z,37.23
2018-11-23T02:20:17.009Z,35.67
2018-11-23T02:22:46.374Z,35.10
2018-11-23T02:25:16.574Z,34.70
2018-11-23T02:27:45.129Z,33.90
2018-11-23T02:30:17.097Z,35.90
2018-11-23T02:32:46.124Z,34.10
2018-11-23T02:35:16.310Z,34.60
2018-11-23T02:37:46.404Z,36.40
2018-11-23T02:40:16.978Z,35.70
2018-11-23T02:42:47.455Z,35.17
2018-11-23T02:45:19.755Z,37.90
2018-11-23T02:47:48.687Z,38.63
2018-11-23T02:50:18.759Z,35.20
2018-11-23T02:52:48.813Z,39.87
2018-11-23T02:55:19.206Z,40.03
2018-11-23T02:57:49.529Z,35.90
2018-11-23T03:00:20.644Z,35.40
2018-11-23T03:02:50.246Z,38.40
2018-11-23T03:05:21.140Z,38.70
2018-11-23T03:07:50.723Z,39.27
2018-11-23T03:10:20.315Z,37.03
2018-11-23T03:12:49.478Z,36.57
2018-11-23T03:15:20.010Z,35.57
2018-11-23T03:20:47.169Z,36.67
2018-11-23T03:23:16.636Z,37.93
2018-11-23T03:25:45.855Z,41.03
2018-11-23T03:28:18.063Z,38.00
2018-11-23T03:30:56.827Z,38.70
2018-11-23T03:33:26.336Z,40.50
2018-11-23T03:35:55.796Z,38.87
2018-11-23T03:38:24.376Z,38.60
2018-11-23T03:40:53.834Z,38.07
2018-11-23T03:43:26.640Z,37.37
2018-11-23T03:45:56.141Z,41.43
2018-11-23T03:48:24.667Z,40.20
2018-11-23T03:50:53.183Z,40.53
2018-11-23T03:53:46.230Z,39.77
2018-11-23T03:56:15.174Z,42.40
2018-11-23T03:58:43.726Z,38.27
2018-11-23T04:01:12.290Z,38.27
2018-11-23T04:03:40.861Z,40.10
2018-11-23T04:06:09.411Z,38.13
2018-11-23T04:08:37.967Z,37.07
2018-11-23T04:11:06.645Z,38.50
2018-11-23T04:13:35.180Z,38.20
2018-11-23T04:16:03.737Z,39.17
2018-11-23T04:18:32.288Z,38.53
2018-11-23T04:21:02.713Z,36.90
2018-11-23T04:23:32.643Z,37.03
2018-11-23T04:26:01.279Z,39.13
2018-11-23T04:28:29.932Z,39.90
2018-11-23T04:30:58.507Z,36.27
2018-11-23T04:33:27.655Z,41.20
2018-11-23T04:35:56.738Z,41.17
2018-11-23T04:38:25.275Z,40.07
2018-11-23T04:40:53.807Z,40.27
2018-11-23T04:43:22.346Z,42.13
2018-11-23T04:45:51.937Z,39.73
2018-11-23T04:48:20.522Z,41.27
2018-11-23T04:50:49.016Z,36.57
2018-11-23T04:53:17.889Z,40.37
2018-11-23T04:55:46.966Z,39.10
2018-11-23T04:58:16.437Z,39.33
2018-11-23T05:00:45.005Z,41.03
2018-11-23T05:03:13.591Z,38.47
2018-11-23T05:05:42.141Z,38.10
2018-11-23T05:08:10.708Z,41.30
2018-11-23T05:10:39.307Z,41.53
2018-11-23T05:13:07.846Z,40.10
2018-11-23T05:15:36.408Z,41.47
2018-11-23T05:18:05.570Z,40.43
2018-11-23T05:20:34.106Z,36.20
2018-11-23T05:23:02.633Z,36.90
2018-11-23T05:25:31.180Z,37.97
2018-11-23T05:27:59.704Z,39.53
2018-11-23T05:30:28.292Z,39.83
2018-11-23T05:32:56.891Z,37.67
2018-11-23T05:35:25.448Z,39.33
2018-11-23T05:37:54.922Z,39.40
2018-11-23T05:40:23.473Z,37.70
2018-11-23T05:42:52.240Z,40.07
2018-11-23T05:45:22.106Z,39.37
2018-11-23T05:47:50.866Z,39.80
2018-11-23T05:50:22.173Z,41.77
2018-11-23T05:52:50.774Z,39.00
2018-11-23T05:55:19.353Z,37.03
2018-11-23T05:57:48.152Z,38.80
2018-11-23T06:00:26.411Z,36.73
2018-11-23T06:02:55.966Z,36.00
2018-11-23T06:05:24.579Z,33.33
2018-11-23T06:07:53.219Z,39.73
2018-11-23T06:10:22.275Z,39.07
2018-11-23T06:12:51.908Z,38.60
2018-11-23T06:15:21.760Z,34.50
2018-11-23T06:17:50.601Z,34.37
2018-11-23T06:20:20.916Z,37.47
2018-11-23T06:22:51.029Z,38.63
2018-11-23T06:25:27.222Z,37.13
2018-11-23T06:27:55.830Z,40.70
2018-11-23T06:30:24.379Z,35.03
2018-11-23T06:33:04.248Z,35.67
2018-11-23T06:35:33.794Z,38.00
2018-11-23T06:38:03.326Z,36.80
2018-11-23T06:40:31.877Z,39.17
2018-11-23T06:43:00.467Z,36.10
2018-11-23T06:45:29.553Z,38.90
2018-11-23T06:47:58.092Z,41.07
2018-11-23T06:50:26.755Z,37.53
2018-11-23T06:52:55.349Z,37.17
2018-11-23T06:55:23.908Z,39.33
2018-11-23T06:57:52.589Z,37.00
2018-11-23T07:00:22.048Z,39.87
2018-11-23T07:02:50.618Z,38.97
2018-11-23T07:05:20.082Z,40.40
2018-11-23T07:07:48.634Z,40.23
2018-11-23T07:10:17.977Z,35.80
2018-11-23T07:12:47.612Z,38.80
2018-11-23T07:15:17.967Z,35.80
2018-11-23T07:17:47.584Z,36.03
2018-11-23T07:20:16.190Z,36.10
2018-11-23T07:22:45.151Z,37.17
2018-11-23T07:25:15.775Z,38.43
2018-11-23T07:27:47.683Z,38.77
2018-11-23T07:30:21.912Z,34.30
2018-11-23T07:32:50.459Z,36.47
2018-11-23T07:35:19.984Z,37.07
2018-11-23T07:37:49.457Z,38.47
2018-11-23T07:40:31.959Z,34.43
2018-11-23T07:43:01.379Z,38.90
2018-11-23T07:45:30.005Z,36.40
2018-11-23T07:47:59.610Z,38.23
2018-11-23T07:50:28.230Z,34.90
2018-11-23T07:52:57.795Z,39.57
2018-11-23T07:55:26.557Z,36.00
2018-11-23T07:57:55.184Z,37.80
2018-11-23T08:00:25.629Z,37.17
2018-11-23T08:02:54.205Z,31.93
2018-11-23T08:05:23.087Z,32.37
2018-11-23T08:07:51.651Z,37.50
2018-11-23T08:10:19.446Z,34.03
2018-11-23T08:12:49.846Z,33.37
2018-11-23T08:15:27.631Z,34.53
2018-11-23T08:17:56.515Z,33.07
2018-11-23T08:20:26.376Z,32.13
2018-11-23T08:22:55.272Z,32.03
2018-11-23T08:25:24.875Z,36.97
2018-11-23T08:27:54.775Z,33.10
2018-11-23T08:30:24.569Z,32.43
2018-11-23T08:32:53.453Z,35.87
2018-11-23T08:35:22.070Z,35.33
2018-11-23T08:37:50.661Z,32.80
2018-11-23T08:40:23.063Z,34.90
2018-11-23T08:42:52.547Z,35.03
2018-11-23T08:45:22.582Z,35.47
2018-11-23T08:47:51.168Z,31.10
2018-11-23T08:50:23.920Z,33.70
2018-11-23T08:52:53.470Z,32.47
2018-11-23T08:55:23.063Z,35.10
2018-11-23T08:57:53.150Z,30.87
2018-11-23T09:00:23.606Z,29.97
2018-11-23T09:02:53.620Z,29.00
2018-11-23T09:05:22.187Z,29.30
2018-11-23T09:07:52.003Z,32.40
2018-11-23T09:10:25.409Z,29.60
2018-11-23T09:12:56.583Z,28.60
2018-11-23T09:15:25.364Z,31.73
2018-11-23T09:17:53.987Z,30.20
2018-11-23T09:20:22.608Z,31.20
2018-11-23T09:22:51.190Z,30.20
2018-11-23T09:25:21.141Z,27.50
2018-11-23T09:27:49.712Z,27.27
2018-11-23T09:30:21.464Z,31.57
2018-11-23T09:32:50.977Z,30.27
2018-11-23T09:35:19.715Z,33.30
2018-11-23T09:37:48.825Z,30.07
2018-11-23T09:40:20.618Z,29.87
2018-11-23T09:42:49.605Z,28.00
2018-11-23T09:45:21.267Z,28.70
2018-11-23T09:47:51.250Z,29.77
2018-11-23T09:50:21.198Z,31.00
2018-11-23T09:52:51.978Z,29.00
2018-11-23T09:55:24.046Z,29.60
2018-11-23T09:57:52.017Z,31.73
2018-11-23T10:00:22.262Z,30.67
2018-11-23T10:02:52.899Z,29.57
2018-11-23T10:05:22.006Z,32.43
2018-11-23T10:07:52.028Z,30.63
2018-11-23T10:10:21.392Z,29.33
2018-11-23T10:12:51.002Z,31.10
2018-11-23T10:15:21.180Z,30.20
2018-11-23T10:17:50.690Z,32.33
2018-11-23T10:20:21.986Z,32.63
2018-11-23T10:22:51.629Z,32.57
2018-11-23T10:25:23.334Z,31.90
2018-11-23T10:27:51.942Z,29.73
2018-11-23T10:30:22.102Z,32.90
2018-11-23T10:32:51.867Z,32.90
2018-11-23T10:35:20.466Z,33.83
2018-11-23T10:37:50.353Z,32.20
2018-11-23T10:40:21.221Z,31.70
2018-11-23T10:42:49.935Z,34.10
2018-11-23T10:45:20.729Z,31.90
2018-11-23T10:47:49.845Z,33.40
2018-11-23T10:50:19.834Z,35.93
2018-11-23T10:52:48.681Z,31.97
2018-11-23T10:55:19.949Z,31.67
2018-11-23T10:58:11.903Z,34.83
2018-11-23T11:00:46.573Z,35.20
2018-11-23T11:06:26.325Z,35.83
2018-11-23T11:08:55.177Z,33.50
2018-11-23T11:11:24.705Z,32.77
2018-11-23T11:13:53.710Z,35.30
2018-11-23T11:16:22.699Z,37.37
2018-11-23T11:18:51.470Z,35.50
2018-11-23T11:21:20.152Z,35.13
2018-11-23T11:23:48.730Z,34.67
2018-11-23T11:26:18.639Z,37.23
2018-11-23T11:28:48.252Z,34.97
2018-11-23T11:31:17.706Z,38.50
2018-11-23T11:33:47.208Z,39.00
2018-11-23T11:36:16.933Z,37.50
2018-11-23T11:38:46.286Z,37.63
2018-11-23T11:41:14.529Z,36.30
2018-11-23T11:43:43.440Z,41.97
2018-11-23T11:46:13.036Z,39.37
2018-11-23T11:48:41.614Z,37.70
2018-11-23T11:51:11.053Z,40.80
2018-11-23T11:53:39.912Z,39.60
2018-11-23T11:56:08.684Z,41.87
2018-11-23T11:58:37.773Z,40.33
2018-11-23T12:01:06.541Z,38.97
2018-11-23T12:03:35.109Z,39.80
2018-11-23T12:06:03.723Z,38.00
2018-11-23T12:08:32.340Z,36.30
2018-11-23T12:11:00.916Z,39.73
2018-11-23T12:13:29.504Z,37.00
2018-11-23T12:15:59.124Z,39.80
2018-11-23T12:18:27.692Z,39.13
2018-11-23T12:20:56.415Z,38.17
2018-11-23T12:23:25.328Z,44.10
2018-11-23T12:25:53.906Z,40.80
2018-11-23T12:28:23.355Z,39.67
2018-11-23T12:30:51.961Z,39.67
2018-11-23T12:33:21.692Z,40.10
2018-11-23T12:35:51.091Z,39.27
2018-11-23T12:38:19.690Z,40.40
2018-11-23T12:40:48.232Z,39.20
2018-11-23T12:43:17.467Z,39.97
2018-11-23T12:45:46.663Z,40.17
2018-11-23T12:48:15.873Z,38.77
2018-11-23T12:50:44.465Z,42.10
2018-11-23T12:53:13.045Z,40.37
2018-11-23T12:55:42.738Z,43.47
2018-11-23T12:58:12.330Z,38.20
2018-11-23T13:00:40.918Z,40.30
2018-11-23T13:03:09.474Z,42.87
2018-11-23T13:05:38.365Z,37.17
2018-11-23T13:08:07.507Z,39.33
2018-11-23T13:10:36.095Z,40.00
2018-11-23T13:13:05.695Z,42.20
2018-11-23T13:15:34.396Z,40.20
2018-11-23T13:18:03.163Z,41.10
2018-11-23T13:20:31.761Z,39.50
2018-11-23T13:23:00.483Z,39.73
2018-11-23T13:25:31.555Z,37.50
2018-11-23T13:28:00.242Z,38.70
2018-11-23T13:30:32.225Z,39.13
2018-11-23T13:33:01.668Z,46.00
2018-11-23T13:35:31.615Z,38.50
2018-11-23T13:38:01.213Z,40.50
2018-11-23T13:40:30.249Z,38.40
2018-11-23T13:42:59.709Z,40.70
2018-11-23T13:45:29.863Z,38.20
2018-11-23T13:47:59.341Z,40.83
2018-11-23T13:50:28.297Z,41.07
2018-11-23T13:52:58.476Z,39.23
2018-11-23T13:55:28.063Z,43.07
2018-11-23T13:57:56.623Z,40.60
2018-11-23T14:00:27.605Z,40.00
2018-11-23T14:02:56.999Z,40.50
2018-11-23T14:05:27.101Z,39.70
2018-11-23T14:07:58.110Z,40.03
2018-11-23T14:10:27.578Z,41.30
2018-11-23T14:12:56.177Z,41.20
2018-11-23T14:15:26.126Z,41.07
2018-11-23T14:17:56.536Z,47.40
2018-11-23T14:20:26.019Z,40.97
2018-11-23T14:22:55.593Z,39.53
2018-11-23T14:25:25.717Z,44.97
2018-11-23T14:27:54.943Z,40.17
2018-11-23T14:30:25.405Z,40.47
2018-11-23T14:32:54.697Z,45.00
2018-11-23T14:35:24.944Z,42.30
2018-11-23T14:37:55.342Z,41.67
2018-11-23T14:40:23.883Z,38.57
2018-11-23T14:42:52.842Z,43.07
2018-11-23T14:45:31.299Z,41.43
2018-11-23T14:48:02.417Z,43.70
2018-11-23T14:50:33.102Z,40.93
2018-11-23T14:53:02.149Z,41.53
2018-11-23T14:55:31.155Z,40.43
2018-11-23T14:58:00.036Z,36.93
2018-11-23T15:00:36.250Z,40.03
2018-11-23T15:03:06.907Z,40.43
2018-11-23T15:05:35.916Z,40.00
2018-11-23T15:08:05.653Z,39.60
2018-11-23T15:10:35.279Z,43.37
2018-11-23T15:13:04.800Z,41.37
2018-11-23T15:15:34.929Z,39.30
2018-11-23T15:18:03.611Z,41.27
2018-11-23T15:20:36.674Z,40.23
2018-11-23T15:23:16.188Z,42.93
2018-11-23T15:25:45.205Z,40.57
2018-11-23T15:28:14.317Z,41.93
2018-11-23T15:30:43.770Z,42.90
2018-11-23T15:33:14.047Z,45.60
2018-11-23T15:35:43.555Z,42.27
2018-11-23T15:38:13.941Z,43.80
2018-11-23T15:40:42.568Z,42.13
2018-11-23T15:43:12.771Z,40.50
2018-11-23T15:45:41.418Z,40.80
2018-11-23T15:48:10.638Z,40.67
2018-11-23T15:50:40.322Z,39.13
2018-11-23T15:53:10.344Z,41.70
2018-11-23T15:55:39.555Z,40.20
2018-11-23T15:58:10.534Z,40.70
2018-11-23T16:00:41.308Z,40.97
2018-11-23T16:03:11.173Z,39.37
2018-11-23T16:05:40.065Z,40.03
2018-11-23T16:08:11.950Z,40.30
2018-11-23T16:10:40.661Z,40.47
2018-11-23T16:13:11.266Z,44.13
2018-11-23T16:15:39.244Z,42.40
2018-11-23T16:18:08.316Z,40.27
2018-11-23T16:20:39.185Z,43.53
2018-11-23T16:23:09.442Z,40.80
2018-11-23T16:25:38.197Z,45.50
2018-11-23T16:28:08.002Z,42.70
2018-11-23T16:30:39.069Z,44.37
2018-11-23T16:33:10.152Z,42.10
2018-11-23T16:35:39.692Z,40.37
2018-11-23T16:38:11.612Z,40.30
2018-11-23T16:40:42.814Z,44.17
2018-11-23T16:43:12.548Z,44.47
2018-11-23T16:45:42.757Z,42.80
2018-11-23T16:48:12.507Z,39.77
2018-11-23T16:50:41.199Z,42.03
2018-11-23T16:53:09.983Z,41.47
2018-11-23T16:55:38.604Z,42.17
2018-11-23T16:58:08.566Z,44.10
2018-11-23T17:00:38.855Z,43.27
2018-11-23T17:03:09.494Z,43.30
2018-11-23T17:05:48.849Z,40.40
2018-11-23T17:08:20.847Z,41.90
2018-11-23T17:10:51.375Z,43.73
2018-11-23T17:13:21.345Z,44.53
2018-11-23T17:15:50.457Z,43.93
2018-11-23T17:18:19.167Z,45.20
2018-11-23T17:20:48.649Z,43.90
2018-11-23T17:23:18.227Z,43.90
2018-11-23T17:25:47.852Z,47.43
2018-11-23T17:28:17.229Z,46.33
2018-11-23T17:30:46.939Z,47.37
2018-11-23T17:33:16.367Z,46.50
2018-11-23T17:35:46.248Z,45.30
2018-11-23T17:38:15.211Z,45.57
2018-11-23T17:40:44.651Z,39.80
2018-11-23T17:43:13.244Z,44.53
2018-11-23T17:45:41.803Z,44.87
2018-11-23T17:48:10.364Z,44.57
2018-11-23T17:50:39.719Z,44.60
2018-11-23T17:53:08.290Z,44.10
2018-11-23T17:55:36.800Z,47.37
2018-11-23T17:58:05.882Z,42.30
2018-11-23T18:00:39.237Z,47.77
2018-11-23T18:03:05.769Z,48.80
2018-11-23T18:05:35.832Z,43.83
2018-11-23T18:08:05.245Z,46.27
2018-11-23T18:10:34.664Z,49.20
2018-11-23T18:13:04.301Z,47.50
2018-11-23T18:15:33.980Z,48.87
2018-11-23T18:18:03.540Z,53.33
2018-11-23T18:20:33.321Z,51.57
2018-11-23T18:23:03.329Z,46.53
2018-11-23T18:25:33.410Z,48.57
2018-11-23T18:28:01.081Z,49.00
2018-11-23T18:30:31.828Z,45.03
2018-11-23T18:33:03.817Z,46.53
2018-11-23T18:35:33.040Z,46.37
2018-11-23T18:38:02.916Z,47.60
2018-11-23T18:40:37.428Z,54.25
2018-11-23T18:43:04.202Z,52.00
2018-11-23T18:45:33.823Z,47.27
2018-11-23T18:48:04.323Z,46.90
2018-11-23T18:50:34.088Z,46.30
2018-11-23T18:53:03.695Z,42.80
2018-11-23T18:55:32.280Z,42.90
2018-11-23T18:58:02.311Z,46.70
2018-11-23T19:00:31.706Z,44.83
2018-11-23T19:03:02.661Z,43.10
2018-11-23T19:05:33.871Z,43.27
2018-11-23T19:08:05.215Z,47.37
2018-11-23T19:10:38.657Z,45.77
2018-11-23T19:13:07.370Z,47.70
2018-11-23T19:15:36.096Z,48.17
2018-11-23T19:18:04.855Z,46.60
2018-11-23T19:20:35.112Z,45.87
2018-11-23T19:23:04.574Z,43.93
2018-11-23T19:25:34.599Z,47.80
2018-11-23T19:28:05.985Z,47.13
2018-11-23T19:30:35.951Z,48.13
2018-11-23T19:33:04.889Z,49.20
2018-11-23T19:35:34.438Z,48.07
2018-11-23T19:38:03.055Z,50.20
2018-11-23T19:40:31.850Z,43.83
2018-11-23T19:43:00.579Z,45.33
2018-11-23T19:45:29.303Z,42.20
2018-11-23T19:47:57.898Z,43.60
2018-11-23T19:50:26.804Z,47.60
2018-11-23T19:52:56.358Z,47.77
2018-11-23T19:55:25.116Z,44.00
2018-11-23T19:57:54.184Z,42.20
2018-11-23T20:00:24.791Z,43.13
2018-11-23T20:02:53.535Z,43.37
2018-11-23T20:05:22.542Z,40.77
2018-11-23T20:07:54.460Z,38.70
2018-11-23T20:10:23.882Z,40.70
2018-11-23T20:12:54.781Z,38.30
2018-11-23T20:15:23.472Z,45.03
2018-11-23T20:17:52.055Z,42.90
2018-11-23T20:20:20.686Z,41.67
2018-11-23T20:22:50.244Z,46.20
2018-11-23T20:25:19.857Z,45.23
2018-11-23T20:27:50.706Z,45.80
2018-11-23T20:30:19.823Z,44.83
2018-11-23T20:32:49.116Z,46.73
2018-11-23T20:35:19.020Z,46.37
2018-11-23T20:37:48.251Z,47.50
2018-11-23T20:40:18.852Z,45.90
2018-11-23T20:42:48.354Z,45.27
2018-11-23T20:45:17.821Z,43.30
2018-11-23T20:47:47.306Z,44.23
2018-11-23T20:50:18.671Z,42.23
2018-11-23T20:52:51.597Z,42.10
2018-11-23T20:55:22.186Z,38.30
2018-11-23T20:57:50.889Z,40.20
2018-11-23T21:00:21.605Z,42.60
2018-11-23T21:02:51.235Z,38.90
2018-11-23T21:05:20.994Z,40.90
2018-11-23T21:07:49.642Z,44.63
2018-11-23T21:10:21.531Z,43.37
2018-11-23T21:12:51.682Z,42.90
2018-11-23T21:15:23.419Z,39.27
2018-11-23T21:17:52.055Z,41.63
2018-11-23T21:20:20.705Z,39.57
2018-11-23T21:22:49.532Z,39.83
2018-11-23T21:25:18.408Z,38.57
2018-11-23T21:27:47.607Z,41.47
2018-11-23T21:30:19.242Z,45.20
2018-11-23T21:32:48.304Z,39.07
2018-11-23T21:35:17.350Z,42.37
2018-11-23T21:37:46.161Z,44.73
2018-11-23T21:40:16.361Z,44.70
2018-11-23T21:42:45.317Z,41.90
2018-11-23T21:45:18.537Z,42.27
2018-11-23T21:47:48.028Z,47.93
2018-11-23T21:50:25.512Z,49.73
2018-11-23T21:52:52.909Z,45.90
2018-11-23T21:55:25.497Z,43.57
2018-11-23T21:57:55.331Z,48.20
2018-11-23T22:00:24.629Z,50.73
2018-11-23T22:02:54.072Z,45.27
2018-11-23T22:05:24.172Z,45.70
2018-11-23T22:07:52.826Z,44.17
2018-11-23T22:10:22.293Z,51.10
2018-11-23T22:12:51.931Z,49.60
2018-11-23T22:15:23.615Z,41.70
2018-11-23T22:17:54.170Z,43.77
2018-11-23T22:20:23.522Z,44.67
2018-11-23T22:22:52.228Z,47.37
2018-11-23T22:25:22.588Z,48.10
2018-11-23T22:27:51.253Z,45.43
2018-11-23T22:30:25.155Z,42.23
2018-11-23T22:32:53.730Z,52.57
2018-11-23T22:35:22.305Z,46.03
2018-11-23T22:37:50.918Z,46.70
2018-11-23T22:40:20.420Z,42.23
2018-11-23T22:42:50.200Z,42.07
2018-11-23T22:45:19.586Z,40.27
2018-11-23T22:47:48.296Z,44.33
2018-11-23T22:50:19.191Z,45.27
2018-11-23T22:52:48.504Z,47.90
2018-11-23T22:55:18.148Z,51.57
2018-11-23T22:57:48.490Z,43.90
2018-11-23T23:01:29.819Z,38.50
2018-11-23T23:03:59.284Z,42.00
2018-11-23T23:06:27.860Z,40.03
2018-11-23T23:08:57.253Z,41.97
2018-11-23T23:11:26.000Z,40.60
2018-11-23T23:13:55.466Z,39.60
2018-11-23T23:16:24.918Z,38.17
2018-11-23T23:18:53.496Z,36.87
2018-11-23T23:21:22.067Z,41.70
2018-11-23T23:23:51.540Z,38.70
2018-11-23T23:26:20.082Z,33.53
2018-11-23T23:28:49.559Z,36.20
2018-11-23T23:31:19.334Z,39.00
2018-11-23T23:33:48.753Z,42.80
2018-11-23T23:36:18.465Z,41.00
2018-11-23T23:38:49.153Z,42.57
2018-11-23T23:41:18.558Z,42.17
2018-11-23T23:43:49.078Z,35.33
2018-11-23T23:46:18.686Z,40.20
2018-11-23T23:48:49.122Z,38.87
2018-11-23T23:51:18.613Z,40.83
2018-11-23T23:53:47.896Z,38.17
2018-11-23T23:56:18.160Z,40.03
2018-11-23T23:58:47.851Z,35.40
